ASA61 PAYA-PACV
Flight info
| Callsign | ASA61 |
|---|---|
| Flight time | 0h 43m |
| Altitude | 28000 |
| Route | OCC FORAT |
| Aircraft | B737/M-SDE2E3FGHIRWXY/LB1 |
Departure
| Time | 2026-04-24 20:43 |
|---|---|
| Airport | Yakutat Airport (PAYA) |
Arrival
| Time | 2026-04-24 21:26 |
|---|---|
| Airport | Merle K (Mudhole) Smith Airport (PACV) |
| Time | Latitude | Longitude | Altitude | Speed | Heading |
|---|---|---|---|---|---|
| 2026-04-24 20:23 | 59.50798 | -139.66730 | 48 ft | 0 kts | 332° |
| 2026-04-24 20:35 | 59.50799 | -139.66731 | 48 ft | 3 kts | 329° |
| 2026-04-24 20:35 | 59.50780 | -139.66710 | 46 ft | 4 kts | 343° |
| 2026-04-24 20:36 | 59.50754 | -139.66704 | 47 ft | 4 kts | 11° |
| 2026-04-24 20:36 | 59.50736 | -139.66715 | 47 ft | 1 kts | 28° |
| 2026-04-24 20:36 | 59.50733 | -139.66718 | 48 ft | 0 kts | 28° |
| 2026-04-24 20:38 | 59.50740 | -139.66711 | 47 ft | 5 kts | 28° |
| 2026-04-24 20:39 | 59.50785 | -139.66642 | 48 ft | 9 kts | 44° |
| 2026-04-24 20:39 | 59.50830 | -139.66555 | 48 ft | 9 kts | 45° |
| 2026-04-24 20:39 | 59.50874 | -139.66470 | 48 ft | 9 kts | 44° |
| 2026-04-24 20:39 | 59.50915 | -139.66389 | 48 ft | 8 kts | 45° |
| 2026-04-24 20:40 | 59.50939 | -139.66342 | 47 ft | 0 kts | 45° |
| 2026-04-24 20:42 | 59.50943 | -139.66333 | 48 ft | 3 kts | 45° |
| 2026-04-24 20:42 | 59.50971 | -139.66279 | 47 ft | 9 kts | 45° |
| 2026-04-24 20:42 | 59.50993 | -139.66166 | 46 ft | 11 kts | 131° |
| 2026-04-24 20:43 | 59.50805 | -139.65802 | 46 ft | 75 kts | 135° |
| 2026-04-24 20:43 | 59.50280 | -139.64768 | 53 ft | 136 kts | 134° |
| 2026-04-24 20:43 | 59.49561 | -139.63389 | 561 ft | 144 kts | 134° |
| 2026-04-24 20:43 | 59.48887 | -139.62005 | 1384 ft | 142 kts | 133° |
| 2026-04-24 20:44 | 59.48279 | -139.60414 | 2021 ft | 152 kts | 107° |
| 2026-04-24 20:44 | 59.48456 | -139.58369 | 2606 ft | 164 kts | 52° |
| 2026-04-24 20:44 | 59.49463 | -139.57384 | 3206 ft | 171 kts | 4° |
| 2026-04-24 20:44 | 59.50670 | -139.57579 | 3763 ft | 182 kts | 342° |
| 2026-04-24 20:45 | 59.51715 | -139.59186 | 4018 ft | 206 kts | 295° |
| 2026-04-24 20:45 | 59.52252 | -139.61937 | 4264 ft | 228 kts | 288° |
| 2026-04-24 20:45 | 59.52838 | -139.65037 | 4493 ft | 255 kts | 289° |
| 2026-04-24 20:45 | 59.53503 | -139.68374 | 5108 ft | 266 kts | 289° |
| 2026-04-24 20:46 | 59.54202 | -139.71780 | 5901 ft | 268 kts | 289° |
| 2026-04-24 20:46 | 59.54858 | -139.75218 | 6765 ft | 269 kts | 286° |
| 2026-04-24 20:46 | 59.55444 | -139.78737 | 7585 ft | 271 kts | 285° |
| 2026-04-24 20:46 | 59.56017 | -139.82292 | 8461 ft | 273 kts | 284° |
| 2026-04-24 20:47 | 59.56592 | -139.85872 | 9372 ft | 275 kts | 283° |
| 2026-04-24 20:47 | 59.57175 | -139.89499 | 10375 ft | 279 kts | 283° |
| 2026-04-24 20:47 | 59.57781 | -139.93291 | 10775 ft | 304 kts | 283° |
| 2026-04-24 20:47 | 59.58440 | -139.97413 | 11255 ft | 321 kts | 283° |
| 2026-04-24 20:48 | 59.59124 | -140.01651 | 12149 ft | 325 kts | 283° |
| 2026-04-24 20:48 | 59.59806 | -140.05856 | 13138 ft | 326 kts | 282° |
| 2026-04-24 20:48 | 59.60499 | -140.10130 | 14152 ft | 328 kts | 282° |
| 2026-04-24 20:48 | 59.61199 | -140.14460 | 14995 ft | 333 kts | 282° |
| 2026-04-24 20:49 | 59.61908 | -140.18866 | 15822 ft | 338 kts | 282° |
| 2026-04-24 20:49 | 59.62626 | -140.23335 | 16657 ft | 344 kts | 283° |
| 2026-04-24 20:49 | 59.63345 | -140.27815 | 17493 ft | 349 kts | 283° |
| 2026-04-24 20:49 | 59.64082 | -140.32425 | 18325 ft | 354 kts | 283° |
| 2026-04-24 20:50 | 59.64831 | -140.37118 | 19085 ft | 360 kts | 283° |
| 2026-04-24 20:50 | 59.65586 | -140.41872 | 19843 ft | 364 kts | 282° |
| 2026-04-24 20:50 | 59.66347 | -140.46674 | 20586 ft | 368 kts | 282° |
| 2026-04-24 20:50 | 59.67118 | -140.51542 | 21303 ft | 372 kts | 282° |
| 2026-04-24 20:51 | 59.67896 | -140.56465 | 22008 ft | 377 kts | 282° |
| 2026-04-24 20:51 | 59.68672 | -140.61392 | 22698 ft | 382 kts | 282° |
| 2026-04-24 20:51 | 59.69465 | -140.66441 | 23385 ft | 386 kts | 282° |
| 2026-04-24 20:51 | 59.70262 | -140.71531 | 24157 ft | 387 kts | 282° |
| 2026-04-24 20:52 | 59.71055 | -140.76598 | 24997 ft | 383 kts | 282° |
| 2026-04-24 20:52 | 59.71837 | -140.81600 | 25879 ft | 377 kts | 282° |
| 2026-04-24 20:52 | 59.72607 | -140.86545 | 26720 ft | 375 kts | 281° |
| 2026-04-24 20:52 | 59.73372 | -140.91490 | 27486 ft | 374 kts | 281° |
| 2026-04-24 20:53 | 59.74131 | -140.96415 | 28165 ft | 375 kts | 281° |
| 2026-04-24 20:53 | 59.74890 | -141.01357 | 28397 ft | 374 kts | 281° |
| 2026-04-24 20:53 | 59.76387 | -141.11190 | 28414 ft | 372 kts | 280° |
| 2026-04-24 20:54 | 59.77883 | -141.20992 | 28413 ft | 370 kts | 280° |
| 2026-04-24 20:54 | 59.79368 | -141.30788 | 28413 ft | 370 kts | 280° |
| 2026-04-24 20:55 | 59.80844 | -141.40603 | 28412 ft | 371 kts | 280° |
| 2026-04-24 20:55 | 59.82307 | -141.50389 | 28407 ft | 372 kts | 279° |
| 2026-04-24 20:56 | 59.83775 | -141.60263 | 28405 ft | 372 kts | 279° |
| 2026-04-24 20:56 | 59.85238 | -141.70162 | 28438 ft | 373 kts | 278° |
| 2026-04-24 20:57 | 59.86690 | -141.80072 | 28394 ft | 372 kts | 279° |
| 2026-04-24 20:57 | 59.88134 | -141.89932 | 28385 ft | 370 kts | 279° |
| 2026-04-24 20:58 | 59.89564 | -141.99768 | 28375 ft | 369 kts | 279° |
| 2026-04-24 20:58 | 59.90979 | -142.09569 | 28380 ft | 368 kts | 278° |
| 2026-04-24 20:59 | 59.92377 | -142.19321 | 28378 ft | 368 kts | 278° |
| 2026-04-24 20:59 | 59.93778 | -142.29149 | 28371 ft | 368 kts | 278° |
| 2026-04-24 21:00 | 59.95173 | -142.39000 | 28403 ft | 369 kts | 278° |
| 2026-04-24 21:00 | 59.96562 | -142.48865 | 28383 ft | 369 kts | 278° |
| 2026-04-24 21:01 | 59.97938 | -142.58685 | 28355 ft | 369 kts | 277° |
| 2026-04-24 21:01 | 59.99314 | -142.68565 | 28364 ft | 369 kts | 277° |
| 2026-04-24 21:02 | 60.00680 | -142.78444 | 28363 ft | 368 kts | 277° |
| 2026-04-24 21:02 | 60.02038 | -142.88325 | 28360 ft | 368 kts | 277° |
| 2026-04-24 21:03 | 60.03386 | -142.98198 | 28364 ft | 368 kts | 277° |
| 2026-04-24 21:03 | 60.04729 | -143.08104 | 28377 ft | 370 kts | 276° |
| 2026-04-24 21:04 | 60.06064 | -143.18003 | 28360 ft | 370 kts | 276° |
| 2026-04-24 21:04 | 60.07401 | -143.27970 | 28344 ft | 370 kts | 276° |
| 2026-04-24 21:05 | 60.08726 | -143.37920 | 28342 ft | 368 kts | 276° |
| 2026-04-24 21:05 | 60.10033 | -143.47810 | 27925 ft | 370 kts | 276° |
| 2026-04-24 21:06 | 60.10688 | -143.52766 | 27551 ft | 366 kts | 276° |
| 2026-04-24 21:06 | 60.11334 | -143.57678 | 27123 ft | 362 kts | 276° |
| 2026-04-24 21:06 | 60.11972 | -143.62549 | 26640 ft | 360 kts | 276° |
| 2026-04-24 21:06 | 60.12603 | -143.67388 | 26183 ft | 358 kts | 276° |
| 2026-04-24 21:07 | 60.13229 | -143.72209 | 25730 ft | 356 kts | 276° |
| 2026-04-24 21:07 | 60.13853 | -143.77025 | 25257 ft | 354 kts | 276° |
| 2026-04-24 21:07 | 60.14463 | -143.81753 | 24813 ft | 353 kts | 276° |
| 2026-04-24 21:07 | 60.15077 | -143.86528 | 24332 ft | 353 kts | 277° |
| 2026-04-24 21:08 | 60.15689 | -143.91303 | 23851 ft | 352 kts | 277° |
| 2026-04-24 21:08 | 60.16297 | -143.96062 | 23318 ft | 351 kts | 277° |
| 2026-04-24 21:08 | 60.16903 | -144.00803 | 22807 ft | 349 kts | 277° |
| 2026-04-24 21:08 | 60.17504 | -144.05522 | 22336 ft | 347 kts | 277° |
| 2026-04-24 21:09 | 60.18099 | -144.10214 | 21869 ft | 345 kts | 277° |
| 2026-04-24 21:09 | 60.18680 | -144.14804 | 21403 ft | 343 kts | 277° |
| 2026-04-24 21:09 | 60.19280 | -144.19486 | 20784 ft | 346 kts | 277° |
| 2026-04-24 21:09 | 60.19884 | -144.24142 | 20296 ft | 344 kts | 278° |
| 2026-04-24 21:10 | 60.20488 | -144.28796 | 19836 ft | 343 kts | 278° |
| 2026-04-24 21:10 | 60.21088 | -144.33432 | 19376 ft | 342 kts | 278° |
| 2026-04-24 21:10 | 60.21685 | -144.38059 | 18923 ft | 341 kts | 278° |
| 2026-04-24 21:10 | 60.22078 | -144.41121 | 18581 ft | 342 kts | 278° |
| 2026-04-24 21:11 | 60.22671 | -144.45753 | 18055 ft | 340 kts | 278° |
| 2026-04-24 21:11 | 60.23259 | -144.50354 | 17546 ft | 338 kts | 278° |
| 2026-04-24 21:11 | 60.24029 | -144.56405 | 16944 ft | 335 kts | 278° |
| 2026-04-24 21:11 | 60.24604 | -144.60948 | 16479 ft | 333 kts | 278° |
| 2026-04-24 21:12 | 60.24982 | -144.63938 | 16176 ft | 331 kts | 278° |
| 2026-04-24 21:12 | 60.25549 | -144.68443 | 15500 ft | 335 kts | 278° |
| 2026-04-24 21:12 | 60.26119 | -144.72989 | 14959 ft | 334 kts | 278° |
| 2026-04-24 21:12 | 60.26687 | -144.77530 | 14479 ft | 333 kts | 278° |
| 2026-04-24 21:13 | 60.27251 | -144.82047 | 13946 ft | 332 kts | 279° |
| 2026-04-24 21:13 | 60.27806 | -144.86502 | 13443 ft | 330 kts | 278° |
| 2026-04-24 21:13 | 60.28359 | -144.90978 | 12959 ft | 327 kts | 278° |
| 2026-04-24 21:13 | 60.28909 | -144.95427 | 12474 ft | 325 kts | 279° |
| 2026-04-24 21:14 | 60.29500 | -144.99818 | 12015 ft | 324 kts | 280° |
| 2026-04-24 21:14 | 60.30043 | -145.04201 | 11547 ft | 320 kts | 278° |
| 2026-04-24 21:14 | 60.30476 | -145.08562 | 11106 ft | 316 kts | 273° |
| 2026-04-24 21:14 | 60.30793 | -145.12910 | 10631 ft | 314 kts | 279° |
| 2026-04-24 21:15 | 60.31795 | -145.16873 | 10244 ft | 321 kts | 302° |
| 2026-04-24 21:15 | 60.32775 | -145.20666 | 10058 ft | 300 kts | 276° |
| 2026-04-24 21:15 | 60.32963 | -145.24701 | 9978 ft | 282 kts | 269° |
| 2026-04-24 21:15 | 60.33213 | -145.28625 | 9514 ft | 286 kts | 272° |
| 2026-04-24 21:16 | 60.33197 | -145.32546 | 9105 ft | 276 kts | 258° |
| 2026-04-24 21:16 | 60.32975 | -145.36411 | 8405 ft | 279 kts | 258° |
| 2026-04-24 21:16 | 60.32758 | -145.40338 | 7722 ft | 281 kts | 258° |
| 2026-04-24 21:16 | 60.32559 | -145.44260 | 7136 ft | 281 kts | 259° |
| 2026-04-24 21:17 | 60.32373 | -145.48200 | 6477 ft | 282 kts | 259° |
| 2026-04-24 21:17 | 60.32194 | -145.52119 | 5915 ft | 287 kts | 259° |
| 2026-04-24 21:17 | 60.32017 | -145.56118 | 5585 ft | 284 kts | 260° |
| 2026-04-24 21:17 | 60.31845 | -145.60070 | 5279 ft | 282 kts | 260° |
| 2026-04-24 21:18 | 60.31675 | -145.64034 | 4906 ft | 282 kts | 260° |
| 2026-04-24 21:18 | 60.31502 | -145.67996 | 4498 ft | 283 kts | 260° |
| 2026-04-24 21:18 | 60.31333 | -145.71885 | 4257 ft | 277 kts | 260° |
| 2026-04-24 21:18 | 60.31160 | -145.75773 | 3753 ft | 284 kts | 261° |
| 2026-04-24 21:19 | 60.31339 | -145.79759 | 3355 ft | 292 kts | 288° |
| 2026-04-24 21:19 | 60.32446 | -145.83135 | 3061 ft | 287 kts | 319° |
| 2026-04-24 21:19 | 60.34004 | -145.85460 | 2989 ft | 271 kts | 332° |
| 2026-04-24 21:19 | 60.35602 | -145.87147 | 2951 ft | 243 kts | 353° |
| 2026-04-24 21:20 | 60.38456 | -145.86287 | 2904 ft | 196 kts | 38° |
| 2026-04-24 21:20 | 60.39549 | -145.84739 | 2710 ft | 193 kts | 53° |
| 2026-04-24 21:20 | 60.40340 | -145.82679 | 2448 ft | 178 kts | 64° |
| 2026-04-24 21:21 | 60.40979 | -145.80677 | 2195 ft | 159 kts | 66° |
| 2026-04-24 21:21 | 60.41554 | -145.78845 | 2072 ft | 157 kts | 66° |
| 2026-04-24 21:21 | 60.42135 | -145.76975 | 2021 ft | 155 kts | 65° |
| 2026-04-24 21:21 | 60.42705 | -145.75150 | 1972 ft | 149 kts | 65° |
| 2026-04-24 21:22 | 60.43244 | -145.73435 | 1970 ft | 139 kts | 65° |
| 2026-04-24 21:22 | 60.43744 | -145.71847 | 1975 ft | 130 kts | 66° |
| 2026-04-24 21:22 | 60.44222 | -145.70316 | 2013 ft | 131 kts | 67° |
| 2026-04-24 21:22 | 60.44711 | -145.68747 | 1986 ft | 130 kts | 66° |
| 2026-04-24 21:23 | 60.45176 | -145.67166 | 1914 ft | 131 kts | 69° |
| 2026-04-24 21:23 | 60.45583 | -145.65613 | 1739 ft | 118 kts | 71° |
| 2026-04-24 21:23 | 60.46009 | -145.64247 | 1458 ft | 117 kts | 51° |
| 2026-04-24 21:23 | 60.46655 | -145.63222 | 1315 ft | 116 kts | 58° |
| 2026-04-24 21:24 | 60.47127 | -145.61901 | 1122 ft | 119 kts | 53° |
| 2026-04-24 21:24 | 60.47786 | -145.60906 | 1070 ft | 116 kts | 46° |
| 2026-04-24 21:24 | 60.48425 | -145.59894 | 1063 ft | 118 kts | 49° |
| 2026-04-24 21:24 | 60.49094 | -145.58794 | 1074 ft | 127 kts | 47° |
| 2026-04-24 21:25 | 60.49784 | -145.57651 | 968 ft | 127 kts | 49° |
| 2026-04-24 21:25 | 60.50427 | -145.56423 | 909 ft | 125 kts | 63° |
| 2026-04-24 21:25 | 60.50637 | -145.54709 | 722 ft | 129 kts | 94° |
| 2026-04-24 21:25 | 60.50401 | -145.52949 | 496 ft | 131 kts | 112° |
| 2026-04-24 21:26 | 60.50035 | -145.51303 | 263 ft | 126 kts | 113° |
| 2026-04-24 21:26 | 60.49679 | -145.49696 | 92 ft | 125 kts | 111° |
| 2026-04-24 21:26 | 60.49368 | -145.48292 | 51 ft | 82 kts | 115° |
| 2026-04-24 21:26 | 60.49230 | -145.47672 | 53 ft | 14 kts | 113° |
| 2026-04-24 21:27 | 60.49224 | -145.47567 | 52 ft | 6 kts | 41° |
| 2026-04-24 21:27 | 60.49262 | -145.47527 | 52 ft | 6 kts | 25° |
| 2026-04-24 21:27 | 60.49301 | -145.47492 | 49 ft | 6 kts | 24° |
| 2026-04-24 21:27 | 60.49337 | -145.47460 | 50 ft | 6 kts | 23° |
| 2026-04-24 21:28 | 60.49372 | -145.47428 | 48 ft | 5 kts | 23° |
| 2026-04-24 21:28 | 60.49406 | -145.47396 | 51 ft | 5 kts | 27° |
| 2026-04-24 21:28 | 60.49433 | -145.47346 | 53 ft | 5 kts | 66° |
| 2026-04-24 21:28 | 60.49424 | -145.47286 | 48 ft | 3 kts | 119° |
| 2026-04-24 21:29 | 60.49421 | -145.47274 | 47 ft | 0 kts | 121° |